Epic Cobrador — 9V9160 — position and weather

sailwx.info

Track history (hours):
 
Tides and Currents Weather Stations Pressure Air Temp Water Temp Dewpoint Dewpoint Depression Visibility Wind Speed Wind Dir Waves Ship Positions

Epic Cobrador

Last reported at 2017-Dec-11 16:13 UTC. Time now 2017-Dec-13 03:30 UTC.
Position N 34°29' E 138°52'.

Length 96 m; draft 5.6 m.

Type: Tanker. MMSI: 566047000.

Date/timePositionNaut miles runAvg speedWind from/ knotsBaromVisibWave heightAir tempDewpointWater temp
2017-Dec-11 16:13N 34°29' E 138°52'1 5.9
2017-Dec-11 16:00N 34°30' E 138°53'3 5.6
2017-Dec-11 15:30N 34°31' E 138°56'2 4.9
2017-Dec-11 15:00N 34°32' E 138°59'3 5.0
2017-Dec-11 14:22N 34°34' E 139°01'3 5.6
2017-Dec-11 13:52N 34°36' E 139°04'2 5.2
2017-Dec-11 13:30N 34°38' E 139°05'3 6.8
2017-Dec-11 13:00N 34°40' E 139°08'5 7.6
2017-Dec-11 12:18N 34°44' E 139°12'6 9.0
2017-Dec-11 11:37N 34°49' E 139°17'1 9.0
2017-Dec-11 11:30N 34°50' E 139°17'5 8.5
2017-Dec-11 10:55N 34°53' E 139°22'6 8.2
2017-Dec-11 10:12N 34°56' E 139°28'2 7.9
2017-Dec-11 09:59N 34°57' E 139°30'4 8.5
2017-Dec-11 09:30N 35°00' E 139°34'5 9.2
2017-Dec-11 09:00N 35°03' E 139°38'4 9.0
2017-Dec-11 08:30N 35°06' E 139°42'5 9.5
2017-Dec-11 08:00N 35°10' E 139°45'4 8.6
2017-Dec-11 07:31N 35°14' E 139°46'510.2
2017-Dec-11 07:00N 35°19' E 139°43'5 9.7
2017-Dec-11 06:31N 35°24' E 139°43'5 9.4
2017-Dec-11 06:01N 35°27' E 139°47'5 9.8
2017-Dec-11 05:30N 35°30' E 139°52'5 9.5
2017-Dec-11 04:59N 35°30' E 139°58'1 2.2
2017-Dec-11 04:30N 35°30' E 139°59'0 0.1
2017-Dec-11 04:01N 35°31' E 139°59'0 0.0
2017-Dec-11 03:30N 35°30' E 139°59'0 0.0
2017-Dec-11 03:00N 35°31' E 139°59'0 0.0
2017-Dec-11 02:30N 35°30' E 139°59'0 0.0
2017-Dec-11 02:00N 35°31' E 139°59'0 0.1
2017-Dec-11 01:30N 35°30' E 139°59'0 0.0
2017-Dec-11 01:01N 35°30' E 139°59'0 0.0
2017-Dec-11 00:30N 35°30' E 139°59'0 0.1
2017-Dec-11 00:00N 35°31' E 139°59'0 0.0
2017-Dec-10 23:30N 35°30' E 139°59'0 0.0
2017-Dec-10 23:00N 35°30' E 139°59'0 0.0
2017-Dec-10 22:31N 35°31' E 139°59'0 0.0
2017-Dec-10 22:00N 35°31' E 139°59'0 0.0
2017-Dec-10 21:30N 35°31' E 139°59'0 0.0
2017-Dec-10 21:00N 35°31' E 139°59'0 0.0
2017-Dec-10 20:30N 35°31' E 139°59'0 0.0
2017-Dec-10 20:00N 35°31' E 139°59'0 0.0
2017-Dec-10 19:30N 35°31' E 139°59'0 0.0
2017-Dec-10 19:00N 35°30' E 139°59'0 0.0
2017-Dec-10 18:30N 35°30' E 139°59'0 0.0
2017-Dec-10 18:00N 35°30' E 139°59'0 0.1
2017-Dec-10 17:30N 35°30' E 139°59'0 0.1
2017-Dec-10 17:00N 35°30' E 139°59'0 0.0
2017-Dec-10 16:30N 35°31' E 139°59'0 0.1
2017-Dec-10 16:00N 35°30' E 139°59'0 0.0
2017-Dec-10 15:30N 35°30' E 139°59'0 0.0
2017-Dec-10 15:00N 35°30' E 139°59'0 0.1
2017-Dec-10 14:30N 35°30' E 139°59'0 0.0
2017-Dec-10 14:00N 35°30' E 139°59'0 0.0
2017-Dec-10 13:30N 35°30' E 139°59'0 0.1
2017-Dec-10 13:01N 35°30' E 139°59'0 0.1
2017-Dec-10 12:31N 35°31' E 139°59'0 0.0
2017-Dec-10 12:00N 35°30' E 139°59'0 0.0
2017-Dec-10 11:30N 35°30' E 139°59'0 0.0
2017-Dec-10 11:00N 35°31' E 139°59'0 0.0
2017-Dec-10 10:30N 35°31' E 139°59'0 0.0
2017-Dec-10 10:00N 35°31' E 139°59'0 0.0
2017-Dec-10 09:30N 35°31' E 139°59'0 0.0
2017-Dec-10 09:00N 35°31' E 139°59'0 0.0
2017-Dec-10 08:30N 35°30' E 139°59'0 0.0
2017-Dec-10 08:01N 35°31' E 139°59'0 0.0
2017-Dec-10 07:30N 35°30' E 139°59'0 0.0
2017-Dec-10 07:01N 35°30' E 139°59'0 0.0
2017-Dec-10 06:30N 35°30' E 139°59'0 0.0
2017-Dec-10 05:58N 35°30' E 139°59'0 0.0
2017-Dec-10 05:31N 35°30' E 139°59'0 0.1
2017-Dec-10 04:58N 35°30' E 139°59'0 0.1
2017-Dec-10 04:31N 35°30' E 139°59'0 0.0
2017-Dec-10 03:52N 35°30' E 139°59'0 0.0
2017-Dec-10 03:31N 35°30' E 139°59'0 0.0
2017-Dec-10 02:46N 35°30' E 139°59'0 0.0
2017-Dec-10 02:28N 35°30' E 139°59'0 0.0
2017-Dec-10 02:01N 35°30' E 139°59'0 0.0
2017-Dec-10 01:31N 35°30' E 139°59'2 4.1
2017-Dec-10 01:00N 35°30' E 139°56'1 1.0
2017-Dec-10 00:30N 35°30' E 139°56'2 4.6
2017-Dec-09 23:58N 35°30' E 139°59'0 0.0
2017-Dec-09 23:28N 35°30' E 139°59'0 0.1
2017-Dec-09 22:49N 35°30' E 139°59'1 1.8
2017-Dec-09 22:31N 35°31' E 139°59'3 5.5
2017-Dec-09 22:00N 35°32' E 140°02'1 0.1
2017-Dec-08 22:46N 35°32' E 140°03'0 0.4
2017-Dec-08 22:30N 35°32' E 140°03'3 5.7
2017-Dec-08 22:00N 35°31' E 139°60'1 2.1
2017-Dec-08 21:30N 35°30' E 139°59'0 0.0
2017-Dec-08 21:00N 35°30' E 139°59'0 0.0
2017-Dec-08 20:30N 35°30' E 139°59'0 0.0
2017-Dec-08 20:00N 35°30' E 139°59'0 0.0
2017-Dec-08 19:24N 35°30' E 139°59'0 0.0
2017-Dec-08 18:54N 35°30' E 139°59'0 0.0
2017-Dec-08 18:27N 35°30' E 139°59'0 0.0
2017-Dec-08 17:48N 35°30' E 139°59'0 0.0
2017-Dec-08 17:30N 35°30' E 139°59'0 0.1
2017-Dec-08 16:54N 35°30' E 139°59'0 0.0
2017-Dec-08 16:30N 35°30' E 139°59'0 0.0
2017-Dec-08 15:54N 35°30' E 139°59'0 0.0
2017-Dec-08 15:30N 35°30' E 139°59'0 0.0
2017-Dec-08 15:00N 35°30' E 139°59'0 0.0
2017-Dec-08 14:30N 35°30' E 139°59'0 0.0
2017-Dec-08 14:00N 35°30' E 139°59'0 0.0
2017-Dec-08 13:30N 35°30' E 139°59'0 0.1
2017-Dec-08 13:00N 35°30' E 139°59'0 0.0
2017-Dec-08 12:30N 35°30' E 139°59'0 0.5
2017-Dec-08 12:00N 35°30' E 139°59'3 5.7
2017-Dec-08 11:30N 35°30' E 139°55'4 8.7
2017-Dec-08 11:00N 35°28' E 139°51'510.9
2017-Dec-08 10:30N 35°24' E 139°46'510.8
2017-Dec-08 10:01N 35°19' E 139°44'611.1
2017-Dec-08 09:31N 35°13' E 139°47'510.2
2017-Dec-08 09:00N 35°08' E 139°46'510.2
2017-Dec-08 08:30N 35°04' E 139°43'611.6
2017-Dec-08 08:00N 35°00' E 139°38'713.0
2017-Dec-08 07:30N 34°57' E 139°31'814.3
2017-Dec-08 06:56N 34°52' E 139°23'614.8
2017-Dec-08 06:31N 34°48' E 139°17'915.5
2017-Dec-08 05:55N 34°42' E 139°09'615.1
2017-Dec-08 05:30N 34°37' E 139°04'714.4
2017-Dec-08 05:00N 34°32' E 138°58'1713.9
2017-Dec-08 03:48N 34°24' E 138°40'  
2017-Dec-03 23:07N 30°29' E 121°42'410.4
2017-Dec-03 22:46N 30°27' E 121°45'  
Track history (hours):
 
Tides and Currents Weather Stations Pressure Air Temp Water Temp Dewpoint Dewpoint Depression Visibility Wind Speed Wind Dir Waves Ship Positions

Epic Cobrador

Last reported at 2017-Dec-11 16:13 UTC. Time now 2017-Dec-13 03:30 UTC.
Position N 34°29' E 138°52'.

Length 96 m; draft 5.6 m.

Type: Tanker. MMSI: 566047000.

Date/timePositionNaut miles runAvg speedWind from/ knotsBaromVisibWave heightAir tempDewpointWater temp
2017-Dec-11 16:13N 34°29' E 138°52'1 5.9
2017-Dec-11 16:00N 34°30' E 138°53'3 5.6
2017-Dec-11 15:30N 34°31' E 138°56'2 4.9
2017-Dec-11 15:00N 34°32' E 138°59'3 5.0
2017-Dec-11 14:22N 34°34' E 139°01'3 5.6
2017-Dec-11 13:52N 34°36' E 139°04'2 5.2
2017-Dec-11 13:30N 34°38' E 139°05'3 6.8
2017-Dec-11 13:00N 34°40' E 139°08'5 7.6
2017-Dec-11 12:18N 34°44' E 139°12'6 9.0
2017-Dec-11 11:37N 34°49' E 139°17'1 9.0
2017-Dec-11 11:30N 34°50' E 139°17'5 8.5
2017-Dec-11 10:55N 34°53' E 139°22'6 8.2
2017-Dec-11 10:12N 34°56' E 139°28'2 7.9
2017-Dec-11 09:59N 34°57' E 139°30'4 8.5
2017-Dec-11 09:30N 35°00' E 139°34'5 9.2
2017-Dec-11 09:00N 35°03' E 139°38'4 9.0
2017-Dec-11 08:30N 35°06' E 139°42'5 9.5
2017-Dec-11 08:00N 35°10' E 139°45'4 8.6
2017-Dec-11 07:31N 35°14' E 139°46'510.2
2017-Dec-11 07:00N 35°19' E 139°43'5 9.7
2017-Dec-11 06:31N 35°24' E 139°43'5 9.4
2017-Dec-11 06:01N 35°27' E 139°47'5 9.8
2017-Dec-11 05:30N 35°30' E 139°52'5 9.5
2017-Dec-11 04:59N 35°30' E 139°58'1 2.2
2017-Dec-11 04:30N 35°30' E 139°59'0 0.1
2017-Dec-11 04:01N 35°31' E 139°59'0 0.0
2017-Dec-11 03:30N 35°30' E 139°59'0 0.0
2017-Dec-11 03:00N 35°31' E 139°59'0 0.0
2017-Dec-11 02:30N 35°30' E 139°59'0 0.0
2017-Dec-11 02:00N 35°31' E 139°59'0 0.1
2017-Dec-11 01:30N 35°30' E 139°59'0 0.0
2017-Dec-11 01:01N 35°30' E 139°59'0 0.0
2017-Dec-11 00:30N 35°30' E 139°59'0 0.1
2017-Dec-11 00:00N 35°31' E 139°59'0 0.0
2017-Dec-10 23:30N 35°30' E 139°59'0 0.0
2017-Dec-10 23:00N 35°30' E 139°59'0 0.0
2017-Dec-10 22:31N 35°31' E 139°59'0 0.0
2017-Dec-10 22:00N 35°31' E 139°59'0 0.0
2017-Dec-10 21:30N 35°31' E 139°59'0 0.0
2017-Dec-10 21:00N 35°31' E 139°59'0 0.0
2017-Dec-10 20:30N 35°31' E 139°59'0 0.0
2017-Dec-10 20:00N 35°31' E 139°59'0 0.0
2017-Dec-10 19:30N 35°31' E 139°59'0 0.0
2017-Dec-10 19:00N 35°30' E 139°59'0 0.0
2017-Dec-10 18:30N 35°30' E 139°59'0 0.0
2017-Dec-10 18:00N 35°30' E 139°59'0 0.1
2017-Dec-10 17:30N 35°30' E 139°59'0 0.1
2017-Dec-10 17:00N 35°30' E 139°59'0 0.0
2017-Dec-10 16:30N 35°31' E 139°59'0 0.1
2017-Dec-10 16:00N 35°30' E 139°59'0 0.0
2017-Dec-10 15:30N 35°30' E 139°59'0 0.0
2017-Dec-10 15:00N 35°30' E 139°59'0 0.1
2017-Dec-10 14:30N 35°30' E 139°59'0 0.0
2017-Dec-10 14:00N 35°30' E 139°59'0 0.0
2017-Dec-10 13:30N 35°30' E 139°59'0 0.1
2017-Dec-10 13:01N 35°30' E 139°59'0 0.1
2017-Dec-10 12:31N 35°31' E 139°59'0 0.0
2017-Dec-10 12:00N 35°30' E 139°59'0 0.0
2017-Dec-10 11:30N 35°30' E 139°59'0 0.0
2017-Dec-10 11:00N 35°31' E 139°59'0 0.0
2017-Dec-10 10:30N 35°31' E 139°59'0 0.0
2017-Dec-10 10:00N 35°31' E 139°59'0 0.0
2017-Dec-10 09:30N 35°31' E 139°59'0 0.0
2017-Dec-10 09:00N 35°31' E 139°59'0 0.0
2017-Dec-10 08:30N 35°30' E 139°59'0 0.0
2017-Dec-10 08:01N 35°31' E 139°59'0 0.0
2017-Dec-10 07:30N 35°30' E 139°59'0 0.0
2017-Dec-10 07:01N 35°30' E 139°59'0 0.0
2017-Dec-10 06:30N 35°30' E 139°59'0 0.0
2017-Dec-10 05:58N 35°30' E 139°59'0 0.0
2017-Dec-10 05:31N 35°30' E 139°59'0 0.1
2017-Dec-10 04:58N 35°30' E 139°59'0 0.1
2017-Dec-10 04:31N 35°30' E 139°59'0 0.0
2017-Dec-10 03:52N 35°30' E 139°59'0 0.0
2017-Dec-10 03:31N 35°30' E 139°59'0 0.0
2017-Dec-10 02:46N 35°30' E 139°59'0 0.0
2017-Dec-10 02:28N 35°30' E 139°59'0 0.0
2017-Dec-10 02:01N 35°30' E 139°59'0 0.0
2017-Dec-10 01:31N 35°30' E 139°59'2 4.1
2017-Dec-10 01:00N 35°30' E 139°56'1 1.0
2017-Dec-10 00:30N 35°30' E 139°56'2 4.6
2017-Dec-09 23:58N 35°30' E 139°59'0 0.0
2017-Dec-09 23:28N 35°30' E 139°59'0 0.1
2017-Dec-09 22:49N 35°30' E 139°59'1 1.8
2017-Dec-09 22:31N 35°31' E 139°59'3 5.5
2017-Dec-09 22:00N 35°32' E 140°02'1 0.1
2017-Dec-08 22:46N 35°32' E 140°03'0 0.4
2017-Dec-08 22:30N 35°32' E 140°03'3 5.7
2017-Dec-08 22:00N 35°31' E 139°60'1 2.1
2017-Dec-08 21:30N 35°30' E 139°59'0 0.0
2017-Dec-08 21:00N 35°30' E 139°59'0 0.0
2017-Dec-08 20:30N 35°30' E 139°59'0 0.0
2017-Dec-08 20:00N 35°30' E 139°59'0 0.0
2017-Dec-08 19:24N 35°30' E 139°59'0 0.0
2017-Dec-08 18:54N 35°30' E 139°59'0 0.0
2017-Dec-08 18:27N 35°30' E 139°59'0 0.0
2017-Dec-08 17:48N 35°30' E 139°59'0 0.0
2017-Dec-08 17:30N 35°30' E 139°59'0 0.1
2017-Dec-08 16:54N 35°30' E 139°59'0 0.0
2017-Dec-08 16:30N 35°30' E 139°59'0 0.0
2017-Dec-08 15:54N 35°30' E 139°59'0 0.0
2017-Dec-08 15:30N 35°30' E 139°59'0 0.0
2017-Dec-08 15:00N 35°30' E 139°59'0 0.0
2017-Dec-08 14:30N 35°30' E 139°59'0 0.0
2017-Dec-08 14:00N 35°30' E 139°59'0 0.0
2017-Dec-08 13:30N 35°30' E 139°59'0 0.1
2017-Dec-08 13:00N 35°30' E 139°59'0 0.0
2017-Dec-08 12:30N 35°30' E 139°59'0 0.5
2017-Dec-08 12:00N 35°30' E 139°59'3 5.7
2017-Dec-08 11:30N 35°30' E 139°55'4 8.7
2017-Dec-08 11:00N 35°28' E 139°51'510.9
2017-Dec-08 10:30N 35°24' E 139°46'510.8
2017-Dec-08 10:01N 35°19' E 139°44'611.1
2017-Dec-08 09:31N 35°13' E 139°47'510.2
2017-Dec-08 09:00N 35°08' E 139°46'510.2
2017-Dec-08 08:30N 35°04' E 139°43'611.6
2017-Dec-08 08:00N 35°00' E 139°38'713.0
2017-Dec-08 07:30N 34°57' E 139°31'814.3
2017-Dec-08 06:56N 34°52' E 139°23'614.8
2017-Dec-08 06:31N 34°48' E 139°17'915.5
2017-Dec-08 05:55N 34°42' E 139°09'615.1
2017-Dec-08 05:30N 34°37' E 139°04'714.4
2017-Dec-08 05:00N 34°32' E 138°58'1713.9
2017-Dec-08 03:48N 34°24' E 138°40'  
2017-Dec-03 23:07N 30°29' E 121°42'410.4
2017-Dec-03 22:46N 30°27' E 121°45'  

Dump ship's entire track history